Time;durP1;ratioP1;P1;durP2;ratioP2;P2;SDS_P1;SDS_P2;PMS_P1;PMS_P2;Temp;Humidity;BMP_temperature;BMP_pressure;BME280_temperature;BME280_humidity;BME280_pressure;Samples;Min_cycle;Max_cycle;Signal;HPM_P1;HPM_P2
2021/11/25 00:01:00;;;;;;;52.28;39.78;;;;;;;;;;5089435;28;20059;-79
2021/11/25 00:03:27;;;;;;;49.53;38.67;;;;;;;;;;5076626;28;20016;-79
2021/11/25 00:05:52;;;;;;;51.58;39.92;;;;;;;;;;5076235;28;20029;-79
2021/11/25 00:08:18;;;;;;;52.70;40.97;;;;;;;;;;5075951;28;20043;-79
2021/11/25 00:10:43;;;;;;;55.00;40.70;;;;;;;;;;5076241;28;20044;-79
2021/11/25 00:13:09;;;;;;;54.75;40.72;;;;;;;;;;5073701;28;20044;-77
2021/11/25 00:15:34;;;;;;;54.20;42.08;;;;;;;;;;5077178;28;20040;-79
2021/11/25 00:18:00;;;;;;;51.45;40.72;;;;;;;;;;5077927;28;20032;-79
2021/11/25 00:20:25;;;;;;;53.35;41.63;;;;;;;;;;5075453;28;20261;-79
2021/11/25 00:22:51;;;;;;;51.10;40.65;;;;;;;;;;5077825;28;20069;-79
2021/11/25 00:25:17;;;;;;;53.28;42.08;;;;;;;;;;5074620;28;20103;-80
2021/11/25 00:27:43;;;;;;;54.17;42.55;;;;;;;;;;5074408;28;20074;-79
2021/11/25 00:30:11;;;;;;;52.60;40.85;;;;;;;;;;5077404;28;20033;-79
2021/11/25 00:32:37;;;;;;;54.38;42.40;;;;;;;;;;5077035;28;20048;-79
2021/11/25 00:35:03;;;;;;;56.45;42.63;;;;;;;;;;5075977;28;20489;-80
2021/11/25 00:37:29;;;;;;;56.53;43.75;;;;;;;;;;5075688;28;20488;-80
2021/11/25 00:39:54;;;;;;;59.40;43.28;;;;;;;;;;5074052;28;20063;-79
2021/11/25 00:42:20;;;;;;;54.60;42.20;;;;;;;;;;5076473;28;20107;-79
2021/11/25 00:44:45;;;;;;;59.53;44.80;;;;;;;;;;5076556;28;20039;-79
2021/11/25 00:47:10;;;;;;;52.53;42.58;;;;;;;;;;5075517;28;20032;-79
2021/11/25 00:49:36;;;;;;;55.53;42.50;;;;;;;;;;5075590;28;20123;-79
2021/11/25 00:52:01;;;;;;;55.80;41.45;;;;;;;;;;5071581;28;20033;-79
2021/11/25 00:54:27;;;;;;;52.63;40.75;;;;;;;;;;5087340;28;20031;-80
2021/11/25 00:56:52;;;;;;;56.15;41.70;;;;;;;;;;5076147;28;20103;-81
2021/11/25 00:59:17;;;;;;;56.67;41.80;;;;;;;;;;5076746;28;20024;-80
2021/11/25 01:01:43;;;;;;;53.50;42.45;;;;;;;;;;5076867;28;20634;-80
2021/11/25 01:04:08;;;;;;;56.05;41.92;;;;;;;;;;5072341;28;20029;-80
2021/11/25 01:06:34;;;;;;;55.75;42.80;;;;;;;;;;5088077;28;20032;-79
2021/11/25 01:08:59;;;;;;;54.25;40.83;;;;;;;;;;5075375;28;20111;-79
2021/11/25 01:11:26;;;;;;;52.50;40.00;;;;;;;;;;5078805;28;20079;-79
2021/11/25 01:13:53;;;;;;;53.03;40.97;;;;;;;;;;5085960;28;20039;-79
2021/11/25 01:16:20;;;;;;;53.78;41.15;;;;;;;;;;5073120;28;20051;-79
2021/11/25 01:18:45;;;;;;;55.08;40.72;;;;;;;;;;5074936;28;20028;-80
2021/11/25 01:21:11;;;;;;;53.63;41.35;;;;;;;;;;5075757;28;20036;-79
2021/11/25 01:23:37;;;;;;;52.55;41.05;;;;;;;;;;5076701;28;20115;-80
2021/11/25 01:26:02;;;;;;;52.45;40.53;;;;;;;;;;5076644;28;20032;-79
2021/11/25 01:28:29;;;;;;;53.03;42.05;;;;;;;;;;5070650;28;20032;-79
2021/11/25 01:30:58;;;;;;;52.70;40.53;;;;;;;;;;5088347;28;20902;-79
2021/11/25 01:33:25;;;;;;;55.35;41.42;;;;;;;;;;5081199;28;20103;-80
2021/11/25 01:35:52;;;;;;;54.45;40.40;;;;;;;;;;5079472;28;20024;-79
2021/11/25 01:38:18;;;;;;;55.45;41.38;;;;;;;;;;5079018;28;20032;-79
2021/11/25 01:40:44;;;;;;;52.75;41.28;;;;;;;;;;5080231;28;20020;-79
2021/11/25 01:43:11;;;;;;;53.05;41.80;;;;;;;;;;5075189;28;20055;-80
2021/11/25 01:45:37;;;;;;;51.42;40.38;;;;;;;;;;5079883;28;20413;-79
2021/11/25 01:48:03;;;;;;;54.28;41.35;;;;;;;;;;5078885;28;20028;-79
2021/11/25 01:50:32;;;;;;;52.05;39.88;;;;;;;;;;5078922;28;20040;-79
2021/11/25 01:52:57;;;;;;;50.70;38.33;;;;;;;;;;5080419;28;20026;-79
2021/11/25 01:55:25;;;;;;;52.55;40.22;;;;;;;;;;5078081;28;20024;-79
2021/11/25 01:57:52;;;;;;;50.72;39.15;;;;;;;;;;5075867;28;20460;-79
2021/11/25 02:00:38;;;;;;;51.00;40.33;;;;;;;;;;5080768;28;20477;-79
2021/11/25 02:03:04;;;;;;;51.47;39.30;;;;;;;;;;5079640;28;20025;-79
2021/11/25 02:05:30;;;;;;;52.70;39.85;;;;;;;;;;5079718;28;20108;-78
2021/11/25 02:07:57;;;;;;;48.92;39.78;;;;;;;;;;5079676;28;20544;-78
2021/11/25 02:10:23;;;;;;;53.92;41.65;;;;;;;;;;5077346;28;20036;-79
2021/11/25 02:12:49;;;;;;;50.58;40.13;;;;;;;;;;5077139;28;20033;-78
2021/11/25 02:15:15;;;;;;;48.22;38.95;;;;;;;;;;5080128;28;20513;-78
2021/11/25 02:17:41;;;;;;;49.08;38.88;;;;;;;;;;5079321;28;20040;-78
2021/11/25 02:20:09;;;;;;;48.15;38.30;;;;;;;;;;5079687;28;20024;-79
2021/11/25 02:22:36;;;;;;;47.80;37.63;;;;;;;;;;5079055;28;20468;-79
2021/11/25 02:25:01;;;;;;;49.17;38.65;;;;;;;;;;5075433;28;20028;-79
2021/11/25 02:27:27;;;;;;;51.53;39.55;;;;;;;;;;5079751;28;20040;-79
2021/11/25 02:29:52;;;;;;;50.22;40.08;;;;;;;;;;5077901;28;20401;-78
2021/11/25 02:32:33;;;;;;;48.17;37.63;;;;;;;;;;5079618;28;20032;-79
2021/11/25 02:35:00;;;;;;;50.35;38.47;;;;;;;;;;5079350;28;20029;-78
2021/11/25 02:37:26;;;;;;;50.22;38.33;;;;;;;;;;5076526;28;20036;-79
2021/11/25 02:39:52;;;;;;;51.20;40.05;;;;;;;;;;5076211;28;20028;-79
2021/11/25 02:42:18;;;;;;;49.88;39.50;;;;;;;;;;5079282;28;20397;-79
2021/11/25 02:44:44;;;;;;;50.53;38.45;;;;;;;;;;5084073;28;20032;-79
2021/11/25 02:47:09;;;;;;;49.50;39.13;;;;;;;;;;5086544;28;20021;-79
2021/11/25 02:49:34;;;;;;;47.22;37.53;;;;;;;;;;5078717;28;20031;-79
2021/11/25 02:52:00;;;;;;;48.75;38.50;;;;;;;;;;5075255;28;20028;-79
2021/11/25 02:54:26;;;;;;;48.92;39.65;;;;;;;;;;5077936;28;20067;-79
2021/11/25 02:56:51;;;;;;;50.20;38.08;;;;;;;;;;5077422;28;20477;-79
2021/11/25 02:59:18;;;;;;;45.70;37.65;;;;;;;;;;5078862;28;20039;-79
2021/11/25 03:01:43;;;;;;;48.58;37.28;;;;;;;;;;5078625;28;20023;-79
2021/11/25 03:04:09;;;;;;;46.80;38.03;;;;;;;;;;5074603;28;20408;-79
2021/11/25 03:06:36;;;;;;;50.47;38.85;;;;;;;;;;5077618;28;20048;-78
2021/11/25 03:09:02;;;;;;;50.05;39.75;;;;;;;;;;5078262;28;20032;-78
2021/11/25 03:11:29;;;;;;;52.28;39.63;;;;;;;;;;5085567;28;20044;-80
2021/11/25 03:13:58;;;;;;;50.20;39.70;;;;;;;;;;5087759;28;20020;-80
2021/11/25 03:16:25;;;;;;;48.80;39.05;;;;;;;;;;5076274;28;20048;-78
2021/11/25 03:18:51;;;;;;;46.08;37.85;;;;;;;;;;5075753;28;20060;-78
2021/11/25 03:21:18;;;;;;;47.90;38.03;;;;;;;;;;5079121;28;20078;-78
2021/11/25 03:23:46;;;;;;;49.00;37.35;;;;;;;;;;5078036;28;20029;-78
2021/11/25 03:26:14;;;;;;;44.20;36.42;;;;;;;;;;5078520;28;20070;-79
2021/11/25 03:28:46;;;;;;;47.50;38.50;;;;;;;;;;5078128;28;20028;-79
2021/11/25 03:31:18;;;;;;;46.97;37.78;;;;;;;;;;5074338;28;20017;-79
2021/11/25 03:33:43;;;;;;;47.00;36.83;;;;;;;;;;5076485;28;20041;-81
2021/11/25 03:36:10;;;;;;;46.83;37.88;;;;;;;;;;5078551;28;20032;-80
2021/11/25 03:38:35;;;;;;;44.97;36.85;;;;;;;;;;5077794;28;20071;-80
2021/11/25 03:41:02;;;;;;;46.88;37.35;;;;;;;;;;5076295;28;20062;-79
2021/11/25 03:43:28;;;;;;;46.85;36.53;;;;;;;;;;5075190;28;20027;-79
2021/11/25 03:45:55;;;;;;;48.45;36.58;;;;;;;;;;5075016;28;20021;-80
2021/11/25 03:48:28;;;;;;;46.90;36.03;;;;;;;;;;5078979;28;20028;-79
2021/11/25 03:50:55;;;;;;;44.63;35.45;;;;;;;;;;5086927;28;20034;-79
2021/11/25 03:53:20;;;;;;;44.22;36.00;;;;;;;;;;5083269;28;20111;-80
2021/11/25 03:55:46;;;;;;;45.70;36.35;;;;;;;;;;5076996;28;20128;-79
2021/11/25 03:58:12;;;;;;;45.05;36.22;;;;;;;;;;5074332;28;20048;-79
2021/11/25 04:00:38;;;;;;;48.45;38.33;;;;;;;;;;5077579;28;20063;-78
2021/11/25 04:03:04;;;;;;;48.17;37.25;;;;;;;;;;5076412;28;20107;-79
2021/11/25 04:05:31;;;;;;;47.97;38.13;;;;;;;;;;5077424;28;20029;-79
2021/11/25 04:07:56;;;;;;;46.53;36.72;;;;;;;;;;5077429;28;20024;-79
2021/11/25 04:10:22;;;;;;;50.35;38.72;;;;;;;;;;5075145;28;20424;-78
2021/11/25 04:12:47;;;;;;;45.80;37.63;;;;;;;;;;5075396;28;20412;-80
2021/11/25 04:15:15;;;;;;;47.75;38.05;;;;;;;;;;5076515;28;20032;-80
2021/11/25 04:17:40;;;;;;;48.50;38.78;;;;;;;;;;5077604;28;20040;-79
2021/11/25 04:20:07;;;;;;;45.58;36.60;;;;;;;;;;5077185;28;20033;-79
2021/11/25 04:22:32;;;;;;;46.05;36.50;;;;;;;;;;5075322;28;20396;-79
2021/11/25 04:24:58;;;;;;;43.10;35.95;;;;;;;;;;5073726;28;20036;-79
2021/11/25 04:27:24;;;;;;;47.35;37.63;;;;;;;;;;5076547;28;20028;-80
2021/11/25 04:30:02;;;;;;;44.88;35.25;;;;;;;;;;5075579;28;20040;-79
2021/11/25 04:38:16;;;;;;;45.00;36.78;;;;;;;;;;5077298;28;20096;-79
2021/11/25 04:40:56;;;;;;;44.15;35.42;;;;;;;;;;5075797;28;20032;-79
2021/11/25 04:43:23;;;;;;;46.93;36.10;;;;;;;;;;5075103;28;20027;-79
2021/11/25 04:45:50;;;;;;;45.30;36.53;;;;;;;;;;5073572;28;20031;-79
2021/11/25 04:48:18;;;;;;;45.05;36.50;;;;;;;;;;5075986;28;20469;-79
2021/11/25 04:50:43;;;;;;;45.88;37.08;;;;;;;;;;5076448;28;20028;-78
2021/11/25 04:53:13;;;;;;;47.63;38.15;;;;;;;;;;5076380;28;20032;-80
2021/11/25 04:55:39;;;;;;;46.42;36.65;;;;;;;;;;5075451;28;20016;-80
2021/11/25 04:58:04;;;;;;;44.28;35.22;;;;;;;;;;5054861;28;20090;-79
2021/11/25 05:00:30;;;;;;;48.28;37.65;;;;;;;;;;5076767;28;20062;-79
2021/11/25 05:02:55;;;;;;;43.67;36.67;;;;;;;;;;5076315;28;20035;-79
2021/11/25 05:05:22;;;;;;;47.55;36.78;;;;;;;;;;5076170;28;20425;-79
2021/11/25 05:07:47;;;;;;;47.42;37.22;;;;;;;;;;5076559;28;20019;-80
2021/11/25 05:10:13;;;;;;;45.00;36.40;;;;;;;;;;5072433;28;20043;-79
2021/11/25 05:12:38;;;;;;;44.03;35.30;;;;;;;;;;5076222;28;20046;-79
2021/11/25 05:15:09;;;;;;;43.05;36.13;;;;;;;;;;5076178;28;20066;-79
2021/11/25 05:17:35;;;;;;;46.45;35.70;;;;;;;;;;5075081;28;20020;-79
2021/11/25 05:20:00;;;;;;;45.63;35.58;;;;;;;;;;5075578;28;20033;-79
2021/11/25 05:22:25;;;;;;;45.70;35.67;;;;;;;;;;5073536;28;20056;-78
2021/11/25 05:24:51;;;;;;;45.38;36.35;;;;;;;;;;5074148;28;20463;-79
2021/11/25 05:27:16;;;;;;;49.05;35.72;;;;;;;;;;5091130;28;20024;-79
2021/11/25 05:29:42;;;;;;;44.97;35.47;;;;;;;;;;5079252;28;20060;-80
2021/11/25 05:32:08;;;;;;;45.38;36.30;;;;;;;;;;5076271;28;20032;-79
2021/11/25 05:34:35;;;;;;;46.65;35.10;;;;;;;;;;5074506;28;20024;-80
2021/11/25 05:37:00;;;;;;;47.60;36.40;;;;;;;;;;5071441;28;20583;-79
2021/11/25 05:39:25;;;;;;;45.45;35.05;;;;;;;;;;5086304;28;20048;-79
2021/11/25 05:41:51;;;;;;;46.65;35.88;;;;;;;;;;5077542;28;20412;-79
2021/11/25 05:44:16;;;;;;;46.80;35.78;;;;;;;;;;5074971;28;20524;-78
2021/11/25 05:46:42;;;;;;;46.55;36.40;;;;;;;;;;5076529;28;20035;-80
2021/11/25 05:49:07;;;;;;;46.70;36.22;;;;;;;;;;5071673;28;20097;-79
2021/11/25 05:51:34;;;;;;;45.35;36.25;;;;;;;;;;5079681;28;20877;-78
2021/11/25 05:54:00;;;;;;;46.08;36.15;;;;;;;;;;5088094;28;20109;-80
2021/11/25 05:56:25;;;;;;;48.28;34.95;;;;;;;;;;5080685;28;20045;-79
2021/11/25 05:58:51;;;;;;;47.13;36.40;;;;;;;;;;5069394;28;20386;-79
2021/11/25 06:01:16;;;;;;;43.97;35.95;;;;;;;;;;5058528;28;20028;-80
2021/11/25 06:03:41;;;;;;;46.72;36.08;;;;;;;;;;5074583;28;20033;-80
2021/11/25 06:06:07;;;;;;;48.75;37.83;;;;;;;;;;5076371;28;20116;-80
2021/11/25 06:08:33;;;;;;;45.42;36.72;;;;;;;;;;5076069;28;20366;-80
2021/11/25 06:11:02;;;;;;;45.63;35.65;;;;;;;;;;5075587;28;20079;-80
2021/11/25 06:13:27;;;;;;;44.78;36.55;;;;;;;;;;5069821;28;20438;-80
2021/11/25 06:15:53;;;;;;;45.97;37.55;;;;;;;;;;5072993;28;20035;-80
2021/11/25 06:18:18;;;;;;;48.45;37.60;;;;;;;;;;5069550;28;20025;-79
2021/11/25 06:20:44;;;;;;;48.88;37.90;;;;;;;;;;5076655;28;20037;-79
2021/11/25 06:23:10;;;;;;;45.05;37.25;;;;;;;;;;5078841;28;20028;-79
2021/11/25 06:25:35;;;;;;;47.92;37.65;;;;;;;;;;5078802;28;20027;-78
2021/11/25 06:28:01;;;;;;;48.13;37.00;;;;;;;;;;5073701;28;20029;-79
2021/11/25 06:30:26;;;;;;;48.40;37.95;;;;;;;;;;5078423;28;20481;-79
2021/11/25 06:32:52;;;;;;;48.53;37.10;;;;;;;;;;5080558;28;20028;-80
2021/11/25 06:35:19;;;;;;;48.67;36.88;;;;;;;;;;5079479;28;20031;-79
2021/11/25 06:37:47;;;;;;;47.75;37.03;;;;;;;;;;5078128;28;20507;-78
2021/11/25 06:40:16;;;;;;;50.35;38.33;;;;;;;;;;5072216;28;20154;-78
2021/11/25 06:42:42;;;;;;;49.15;37.13;;;;;;;;;;5074388;28;20032;-79
2021/11/25 06:45:07;;;;;;;53.40;39.35;;;;;;;;;;5080977;28;20032;-79
2021/11/25 06:47:46;;;;;;;49.03;38.60;;;;;;;;;;5087409;28;20062;-80
2021/11/25 06:50:12;;;;;;;49.38;38.05;;;;;;;;;;5081329;28;20024;-80
2021/11/25 06:52:39;;;;;;;52.33;39.75;;;;;;;;;;5081839;28;20027;-81
2021/11/25 06:55:06;;;;;;;49.63;37.58;;;;;;;;;;5091541;28;20480;-81
2021/11/25 06:57:32;;;;;;;53.42;39.60;;;;;;;;;;5065615;28;20037;-79
2021/11/25 06:59:58;;;;;;;51.70;39.28;;;;;;;;;;5076025;28;20124;-79
2021/11/25 07:02:36;;;;;;;64.95;40.53;;;;;;;;;;5084249;28;20044;-84
2021/11/25 07:05:29;;;;;;;54.15;38.08;;;;;;;;;;5084027;28;20028;-82
2021/11/25 07:08:52;;;;;;;51.40;38.20;;;;;;;;;;5080919;28;20024;-82
2021/11/25 07:11:36;;;;;;;51.97;39.72;;;;;;;;;;5090161;28;20056;-82
2021/11/25 07:14:50;;;;;;;50.60;38.80;;;;;;;;;;5078229;28;20488;-83
2021/11/25 07:17:18;;;;;;;58.63;46.33;;;;;;;;;;5079354;28;20515;-81
2021/11/25 07:19:53;;;;;;;56.63;45.22;;;;;;;;;;5097612;28;20123;-82
2021/11/25 07:22:18;;;;;;;58.13;45.22;;;;;;;;;;5079450;28;20032;-82
2021/11/25 07:24:44;;;;;;;54.20;44.72;;;;;;;;;;5098964;28;20127;-81
2021/11/25 07:27:11;;;;;;;57.30;44.75;;;;;;;;;;5095982;28;20024;-81
2021/11/25 07:29:45;;;;;;;58.40;45.22;;;;;;;;;;5090389;28;20077;-82
2021/11/25 07:32:11;;;;;;;62.15;49.72;;;;;;;;;;5083049;28;20035;-82
2021/11/25 07:34:36;;;;;;;57.60;45.58;;;;;;;;;;5094139;28;20488;-83
2021/11/25 07:37:03;;;;;;;58.17;46.38;;;;;;;;;;5096092;28;20048;-82
2021/11/25 07:39:30;;;;;;;56.90;45.65;;;;;;;;;;5094722;28;20034;-81
2021/11/25 07:41:56;;;;;;;68.13;51.92;;;;;;;;;;5080225;28;20044;-82
2021/11/25 07:44:23;;;;;;;60.72;46.97;;;;;;;;;;5080501;28;20043;-82
2021/11/25 07:47:09;;;;;;;69.03;52.72;;;;;;;;;;5082149;28;20040;-82
2021/11/25 07:52:59;;;;;;;58.70;46.33;;;;;;;;;;5081611;28;20055;-81
2021/11/25 07:55:28;;;;;;;60.92;49.30;;;;;;;;;;5094790;28;20040;-84
2021/11/25 07:57:56;;;;;;;65.82;47.63;;;;;;;;;;5096834;28;20032;-82
2021/11/25 08:00:54;;;;;;;61.38;46.75;;;;;;;;;;5082901;28;20031;-83
2021/11/25 08:03:45;;;;;;;60.78;48.03;;;;;;;;;;5081198;28;20142;-83
2021/11/25 08:06:11;;;;;;;60.50;47.80;;;;;;;;;;5083222;28;20036;-81
2021/11/25 08:09:31;;;;;;;68.20;53.08;;;;;;;;;;5089535;28;20032;-82
2021/11/25 08:11:57;;;;;;;61.07;46.53;;;;;;;;;;5090313;28;20039;-84
2021/11/25 08:14:52;;;;;;;58.60;45.45;;;;;;;;;;5095794;28;20042;-83
2021/11/25 08:17:24;;;;;;;56.72;45.20;;;;;;;;;;5095417;28;20024;-84
2021/11/25 08:20:11;;;;;;;61.60;46.85;;;;;;;;;;5081397;28;20435;-81
2021/11/25 08:23:03;;;;;;;62.25;46.47;;;;;;;;;;5093545;28;20028;-82
2021/11/25 08:25:29;;;;;;;63.03;47.33;;;;;;;;;;5080822;28;20052;-82
2021/11/25 08:28:15;;;;;;;61.40;47.45;;;;;;;;;;5062663;28;20075;-82
2021/11/25 08:30:41;;;;;;;69.90;48.13;;;;;;;;;;5096932;28;20028;-81
2021/11/25 08:33:23;;;;;;;66.65;49.97;;;;;;;;;;5083836;28;20033;-83
2021/11/25 08:36:19;;;;;;;65.03;48.67;;;;;;;;;;5096995;28;20028;-82
2021/11/25 08:38:53;;;;;;;66.68;49.00;;;;;;;;;;5094180;28;20028;-83
2021/11/25 08:41:34;;;;;;;67.28;50.45;;;;;;;;;;5083705;28;20040;-82
2021/11/25 08:44:00;;;;;;;62.08;49.65;;;;;;;;;;5079660;28;20044;-82
2021/11/25 08:46:27;;;;;;;64.72;48.88;;;;;;;;;;5078714;28;20039;-83
2021/11/25 08:49:02;;;;;;;68.10;50.92;;;;;;;;;;5078955;28;20024;-82
2021/11/25 08:51:57;;;;;;;65.25;48.58;;;;;;;;;;5095414;28;20024;-82
2021/11/25 08:54:23;;;;;;;63.67;48.72;;;;;;;;;;5095320;28;20024;-82
2021/11/25 08:57:29;;;;;;;65.20;48.97;;;;;;;;;;5101609;28;20064;-84
2021/11/25 09:00:33;;;;;;;65.97;50.28;;;;;;;;;;5080507;28;20042;-83
2021/11/25 09:03:02;;;;;;;69.15;52.10;;;;;;;;;;5084129;28;20032;-82
2021/11/25 09:05:31;;;;;;;62.90;48.70;;;;;;;;;;5086174;28;20028;-83
2021/11/25 09:08:26;;;;;;;62.08;48.75;;;;;;;;;;5091764;28;20070;-82
2021/11/25 09:10:55;;;;;;;60.95;47.53;;;;;;;;;;5087080;28;20052;-82
2021/11/25 09:13:28;;;;;;;60.75;47.13;;;;;;;;;;5077773;28;20071;-82
2021/11/25 09:15:53;;;;;;;62.33;48.20;;;;;;;;;;5092296;28;20065;-83
2021/11/25 09:18:43;;;;;;;65.38;48.92;;;;;;;;;;5098206;28;20027;-82
2021/11/25 09:21:29;;;;;;;102.53;86.80;;;;;;;;;;5101836;28;20047;-82
2021/11/25 09:24:21;;;;;;;74.90;60.92;;;;;;;;;;5099321;28;20032;-82
2021/11/25 09:26:50;;;;;;;64.75;51.10;;;;;;;;;;5084342;28;20040;-83
2021/11/25 09:29:16;;;;;;;66.63;50.22;;;;;;;;;;5078087;28;20046;-82
2021/11/25 09:31:42;;;;;;;65.05;51.63;;;;;;;;;;5081809;28;20066;-83
2021/11/25 09:34:31;;;;;;;63.67;49.90;;;;;;;;;;5095179;28;20059;-83
2021/11/25 09:36:57;;;;;;;66.38;50.90;;;;;;;;;;5075461;28;20102;-83
2021/11/25 09:39:29;;;;;;;69.22;50.50;;;;;;;;;;5091375;28;20465;-82
2021/11/25 09:42:21;;;;;;;61.15;48.95;;;;;;;;;;5073684;28;20051;-81
2021/11/25 09:44:55;;;;;;;65.70;50.55;;;;;;;;;;5085327;28;20055;-82
2021/11/25 09:47:30;;;;;;;60.38;48.63;;;;;;;;;;5093684;28;20031;-82
2021/11/25 09:50:05;;;;;;;63.65;49.03;;;;;;;;;;5084464;28;20173;-83
2021/11/25 09:52:56;;;;;;;63.67;50.72;;;;;;;;;;5079179;28;20484;-81
2021/11/25 09:55:52;;;;;;;67.93;51.38;;;;;;;;;;5083713;28;20037;-82
2021/11/25 09:58:25;;;;;;;69.90;51.33;;;;;;;;;;5082963;28;20119;-83
2021/11/25 10:00:58;;;;;;;66.82;49.78;;;;;;;;;;5080829;28;20048;-82
2021/11/25 10:04:19;;;;;;;67.55;51.60;;;;;;;;;;5101596;28;20140;-82
2021/11/25 10:07:04;;;;;;;68.63;51.97;;;;;;;;;;5063717;28;20083;-83
2021/11/25 10:09:42;;;;;;;75.80;58.65;;;;;;;;;;5062770;28;20056;-82
2021/11/25 10:13:04;;;;;;;71.00;51.22;;;;;;;;;;5061313;28;20086;-82
2021/11/25 10:16:16;;;;;;;64.05;49.42;;;;;;;;;;5060789;28;20033;-82
2021/11/25 10:19:27;;;;;;;68.28;50.83;;;;;;;;;;5094654;28;20113;-83
2021/11/25 10:22:09;;;;;;;69.10;50.58;;;;;;;;;;5080170;28;20036;-82
2021/11/25 10:24:48;;;;;;;69.85;51.45;;;;;;;;;;5082400;28;20040;-82
2021/11/25 10:27:35;;;;;;;67.95;50.20;;;;;;;;;;5084423;28;20358;-82
2021/11/25 10:30:27;;;;;;;66.43;50.08;;;;;;;;;;5079574;28;20034;-83
2021/11/25 10:33:08;;;;;;;67.65;51.45;;;;;;;;;;5083565;28;20055;-81
2021/11/25 10:35:48;;;;;;;68.72;53.05;;;;;;;;;;5086470;28;20047;-82
2021/11/25 10:40:46;;;;;;;70.85;52.80;;;;;;;;;;5085281;28;19916;-82
2021/11/25 10:43:29;;;;;;;67.43;51.47;;;;;;;;;;5083224;28;20036;-82
2021/11/25 10:46:17;;;;;;;73.20;54.53;;;;;;;;;;5082493;28;20024;-83
2021/11/25 10:48:54;;;;;;;67.93;52.75;;;;;;;;;;5095221;28;20048;-84
2021/11/25 10:52:20;;;;;;;66.50;50.13;;;;;;;;;;5075774;28;20040;-80
2021/11/25 10:55:40;;;;;;;65.93;51.15;;;;;;;;;;5098031;28;20064;-82
2021/11/25 10:58:07;;;;;;;66.03;50.30;;;;;;;;;;5095085;28;20036;-83
2021/11/25 11:00:49;;;;;;;63.40;49.13;;;;;;;;;;5093488;28;20059;-83
2021/11/25 11:03:29;;;;;;;64.03;49.63;;;;;;;;;;5091110;28;20441;-81
2021/11/25 11:06:01;;;;;;;67.22;49.42;;;;;;;;;;5088066;28;20476;-82
2021/11/25 11:08:46;;;;;;;64.18;50.25;;;;;;;;;;5084966;28;20060;-81
2021/11/25 11:11:35;;;;;;;64.25;51.05;;;;;;;;;;5081374;28;20057;-82
2021/11/25 11:14:30;;;;;;;66.43;50.95;;;;;;;;;;5082612;28;20405;-81
2021/11/25 11:17:24;;;;;;;66.93;50.22;;;;;;;;;;5070759;28;20399;-80
2021/11/25 11:20:09;;;;;;;63.33;50.60;;;;;;;;;;5078261;28;20032;-80
2021/11/25 11:22:35;;;;;;;65.28;50.85;;;;;;;;;;5085694;28;20086;-80
2021/11/25 11:25:03;;;;;;;66.72;50.83;;;;;;;;;;5082904;28;20029;-80
2021/11/25 11:27:28;;;;;;;66.60;51.85;;;;;;;;;;5090615;28;20059;-80
2021/11/25 11:29:53;;;;;;;70.40;54.25;;;;;;;;;;5082889;28;20063;-79
2021/11/25 11:32:20;;;;;;;69.93;56.08;;;;;;;;;;5080617;28;20028;-80
2021/11/25 11:34:49;;;;;;;67.07;51.95;;;;;;;;;;5070614;28;20028;-80
2021/11/25 11:37:17;;;;;;;69.80;53.67;;;;;;;;;;5073566;28;20046;-80
2021/11/25 11:39:51;;;;;;;73.97;53.65;;;;;;;;;;5073389;28;20606;-80
2021/11/25 11:42:17;;;;;;;72.32;54.45;;;;;;;;;;5077529;28;20123;-80
2021/11/25 11:44:45;;;;;;;73.55;54.72;;;;;;;;;;5083489;28;20395;-81
2021/11/25 11:47:13;;;;;;;74.88;55.33;;;;;;;;;;5075755;28;20487;-80
2021/11/25 11:49:42;;;;;;;71.72;53.83;;;;;;;;;;5078703;28;20062;-80
2021/11/25 11:52:11;;;;;;;68.10;53.20;;;;;;;;;;5063844;28;20030;-80
2021/11/25 11:54:43;;;;;;;64.72;51.78;;;;;;;;;;5074017;28;20498;-80
2021/11/25 11:57:35;;;;;;;71.40;52.13;;;;;;;;;;5075408;28;20021;-80
2021/11/25 12:00:18;;;;;;;67.95;53.10;;;;;;;;;;5081848;28;20400;-80
2021/11/25 12:02:45;;;;;;;66.22;52.03;;;;;;;;;;5084290;28;20028;-80
2021/11/25 12:05:39;;;;;;;70.03;54.35;;;;;;;;;;5083902;28;20028;-79
2021/11/25 12:08:17;;;;;;;211.48;102.47;;;;;;;;;;5079494;28;20111;-81
2021/11/25 12:10:55;;;;;;;128.32;73.30;;;;;;;;;;5072184;28;20105;-80
2021/11/25 12:13:27;;;;;;;86.32;59.28;;;;;;;;;;5073097;28;20044;-79
2021/11/25 12:16:21;;;;;;;71.90;52.80;;;;;;;;;;5087915;28;20024;-79
2021/11/25 12:18:52;;;;;;;70.53;52.80;;;;;;;;;;5072323;28;20077;-81
2021/11/25 12:21:30;;;;;;;68.85;52.60;;;;;;;;;;5077937;28;20031;-81
2021/11/25 12:24:18;;;;;;;68.70;52.17;;;;;;;;;;5072892;28;20028;-80
2021/11/25 12:26:57;;;;;;;81.57;58.50;;;;;;;;;;5063630;28;20519;-80
2021/11/25 12:29:58;;;;;;;151.38;95.22;;;;;;;;;;5073642;28;20020;-79
2021/11/25 12:32:31;;;;;;;116.47;77.10;;;;;;;;;;5004884;28;20045;-80
2021/11/25 12:34:59;;;;;;;132.05;83.53;;;;;;;;;;5023241;28;20068;-81
2021/11/25 12:37:45;;;;;;;103.55;71.40;;;;;;;;;;5013462;28;20041;-79
2021/11/25 12:40:22;;;;;;;145.40;88.57;;;;;;;;;;5028712;28;20397;-81
2021/11/25 12:42:55;;;;;;;121.68;77.20;;;;;;;;;;5003547;28;20037;-80
2021/11/25 12:45:24;;;;;;;66.57;50.67;;;;;;;;;;5023546;28;20064;-80
2021/11/25 12:48:13;;;;;;;89.88;61.40;;;;;;;;;;5025164;28;20528;-82
2021/11/25 12:50:50;;;;;;;81.22;58.30;;;;;;;;;;5030324;28;20513;-80
2021/11/25 12:53:22;;;;;;;83.55;59.30;;;;;;;;;;5020537;28;20048;-80
2021/11/25 12:56:02;;;;;;;76.95;56.83;;;;;;;;;;5034911;28;20045;-78
2021/11/25 12:58:44;;;;;;;65.77;50.23;;;;;;;;;;5013055;28;20029;-78
2021/11/25 13:01:28;;;;;;;71.97;53.53;;;;;;;;;;5014749;28;20131;-80
2021/11/25 13:04:09;;;;;;;58.03;45.45;;;;;;;;;;5015074;28;20057;-78
2021/11/25 13:06:37;;;;;;;58.22;46.22;;;;;;;;;;5032740;28;20144;-79
2021/11/25 13:09:06;;;;;;;57.63;45.58;;;;;;;;;;5052657;28;20062;-79
2021/11/25 13:11:33;;;;;;;58.03;46.42;;;;;;;;;;5077608;28;20048;-78
2021/11/25 13:14:05;;;;;;;59.13;46.10;;;;;;;;;;5087438;28;20016;-79
2021/11/25 13:16:39;;;;;;;65.10;50.60;;;;;;;;;;5087316;28;20024;-79
2021/11/25 13:19:05;;;;;;;62.20;47.67;;;;;;;;;;5075822;28;20025;-79
2021/11/25 13:21:38;;;;;;;66.93;49.67;;;;;;;;;;5090825;28;20091;-80
2021/11/25 13:24:26;;;;;;;62.08;48.78;;;;;;;;;;5080075;28;20028;-78
2021/11/25 13:27:06;;;;;;;62.70;48.55;;;;;;;;;;5084309;28;20384;-80
2021/11/25 13:29:42;;;;;;;61.95;48.33;;;;;;;;;;5085933;28;20027;-80
2021/11/25 13:32:23;;;;;;;62.83;49.28;;;;;;;;;;5082109;28;20027;-80
2021/11/25 13:34:51;;;;;;;65.95;50.80;;;;;;;;;;5076477;28;20103;-79
2021/11/25 13:37:23;;;;;;;65.55;50.55;;;;;;;;;;5085655;28;20024;-79
2021/11/25 13:39:55;;;;;;;64.78;50.80;;;;;;;;;;5078868;28;20044;-79
2021/11/25 13:42:21;;;;;;;61.88;50.22;;;;;;;;;;5082712;28;20047;-79
2021/11/25 13:44:50;;;;;;;63.55;50.67;;;;;;;;;;5074912;28;20036;-79
2021/11/25 13:47:22;;;;;;;67.50;51.40;;;;;;;;;;5082757;28;20024;-79
2021/11/25 13:50:03;;;;;;;61.83;49.83;;;;;;;;;;5081096;28;20067;-80
2021/11/25 13:52:35;;;;;;;63.65;50.33;;;;;;;;;;5085069;28;20039;-80
2021/11/25 13:55:04;;;;;;;67.07;52.65;;;;;;;;;;5082995;28;20033;-80
2021/11/25 13:57:29;;;;;;;62.83;49.58;;;;;;;;;;5085142;28;20032;-79
2021/11/25 13:59:56;;;;;;;58.85;47.88;;;;;;;;;;5087009;28;20027;-80
2021/11/25 14:02:23;;;;;;;61.38;49.47;;;;;;;;;;5085703;28;20035;-79
2021/11/25 14:04:58;;;;;;;61.22;49.60;;;;;;;;;;5088565;28;20028;-79
2021/11/25 14:07:30;;;;;;;64.65;49.58;;;;;;;;;;5076099;28;20029;-80
2021/11/25 14:10:24;;;;;;;67.47;53.03;;;;;;;;;;5076791;28;20029;-79
2021/11/25 14:12:53;;;;;;;63.45;50.55;;;;;;;;;;5080295;28;20040;-79
2021/11/25 14:15:29;;;;;;;60.38;49.00;;;;;;;;;;5077380;28;20021;-79
2021/11/25 14:17:56;;;;;;;64.88;51.38;;;;;;;;;;5081382;28;20026;-79
2021/11/25 14:20:27;;;;;;;61.58;48.38;;;;;;;;;;5084102;28;20024;-79
2021/11/25 14:22:54;;;;;;;66.22;52.08;;;;;;;;;;5087791;28;20020;-79
2021/11/25 14:25:38;;;;;;;64.80;50.45;;;;;;;;;;5074919;28;20036;-80
2021/11/25 14:31:24;;;;;;;65.75;51.95;;;;;;;;;;5062953;28;20077;-79
2021/11/25 14:33:51;;;;;;;64.38;49.92;;;;;;;;;;5078819;28;20536;-79
2021/11/25 14:36:23;;;;;;;65.30;51.08;;;;;;;;;;5082501;28;20037;-79
2021/11/25 14:38:50;;;;;;;61.75;49.33;;;;;;;;;;5073924;28;20069;-79
2021/11/25 14:41:32;;;;;;;63.42;49.72;;;;;;;;;;5077229;28;20099;-79
2021/11/25 14:44:08;;;;;;;62.42;49.35;;;;;;;;;;5078661;28;20020;-79
2021/11/25 14:46:36;;;;;;;67.25;51.28;;;;;;;;;;5073260;28;20017;-79
2021/11/25 14:49:03;;;;;;;62.70;49.67;;;;;;;;;;5089411;28;20099;-79
2021/11/25 14:51:28;;;;;;;61.05;46.17;;;;;;;;;;5084341;28;20033;-78
2021/11/25 14:53:55;;;;;;;62.70;48.00;;;;;;;;;;5078941;28;20085;-79
2021/11/25 14:56:25;;;;;;;60.90;47.95;;;;;;;;;;5081561;28;20488;-80
2021/11/25 14:58:53;;;;;;;60.83;48.33;;;;;;;;;;5089522;28;20065;-79
2021/11/25 15:01:22;;;;;;;62.15;48.15;;;;;;;;;;5074395;28;20024;-79